Time;durP1;ratioP1;P1;durP2;ratioP2;P2;SDS_P1;SDS_P2;PMS_P1;PMS_P2;Temp;Humidity;BMP_temperature;BMP_pressure;BME280_temperature;BME280_humidity;BME280_pressure;Samples;Min_cycle;Max_cycle;Signal;HPM_P1;HPM_P2
2021/12/10 00:00:36;;;;;;;;;0.00;0.00;;;;;5.55;77.05;99032.22;5072970;27;45384;-83
2021/12/10 00:03:05;;;;;;;;;0.00;0.00;;;;;6.03;77.02;99093.41;5071167;27;45706;-83
2021/12/10 00:05:38;;;;;;;;;0.00;0.00;;;;;5.93;77.04;99068.41;5070250;27;47224;-84
2021/12/10 00:08:05;;;;;;;;;0.00;0.00;;;;;5.89;76.85;99065.00;5069627;28;45507;-83
2021/12/10 00:10:36;;;;;;;;;0.00;0.00;;;;;5.78;77.36;99039.16;5074024;27;45564;-82
2021/12/10 00:13:04;;;;;;;;;0.00;0.00;;;;;5.58;77.14;98996.09;5070936;27;45516;-82
2021/12/10 00:15:31;;;;;;;;;0.00;0.00;;;;;5.83;77.30;99029.66;5095579;27;45479;-82
2021/12/10 00:18:00;;;;;;;;;0.00;0.00;;;;;5.74;77.10;99011.59;5091109;27;45487;-82
2021/12/10 00:20:28;;;;;;;;;0.00;0.00;;;;;5.72;77.35;99008.16;5084614;27;45659;-82
2021/12/10 00:23:03;;;;;;;;;0.00;0.00;;;;;5.47;77.63;98938.44;5092835;27;45589;-82
2021/12/10 00:25:38;;;;;;;;;0.00;0.00;;;;;5.60;77.63;98964.25;5100606;27;48281;-83
2021/12/10 00:28:16;;;;;;;;;0.00;0.00;;;;;5.74;77.63;98970.28;5090749;27;45354;-82
2021/12/10 00:31:06;;;;;;;;;0.00;0.00;;;;;5.63;77.77;98934.13;5096539;27;45428;-82
2021/12/10 00:33:39;;;;;;;;;0.00;0.00;;;;;5.46;77.94;98895.44;5098876;27;45437;-82
2021/12/10 00:36:07;;;;;;;;;0.00;0.00;;;;;5.41;77.60;98877.34;5092288;27;46145;-83
2021/12/10 00:38:33;;;;;;;;;0.00;0.00;;;;;5.64;77.80;98922.94;5092565;27;45430;-82
2021/12/10 00:40:59;;;;;;;;;0.00;0.00;;;;;5.54;78.31;98905.72;5098540;27;45364;-82
2021/12/10 00:43:25;;;;;;;;;0.00;0.00;;;;;5.54;77.88;98916.06;5086505;27;45500;-83
2021/12/10 00:45:50;;;;;;;;;0.00;0.00;;;;;5.37;77.77;98898.00;5099238;27;45848;-83
2021/12/10 00:48:16;;;;;;;;;0.00;0.00;;;;;5.41;78.30;98890.25;5092311;27;45418;-83
2021/12/10 00:50:47;;;;;;;;;0.00;0.00;;;;;5.56;78.05;98898.84;5093354;27;45514;-83
2021/12/10 00:53:13;;;;;;;;;1.00;0.00;;;;;5.32;77.92;98848.97;5086871;27;45461;-83
2021/12/10 00:55:39;;;;;;;;;0.00;0.00;;;;;5.40;78.06;98841.22;5091677;27;48437;-83
2021/12/10 00:58:05;;;;;;;;;0.00;0.00;;;;;5.61;77.86;98867.88;5091297;27;45374;-83
2021/12/10 01:00:35;;;;;;;;;0.00;0.00;;;;;5.67;78.41;98870.47;5092493;27;45399;-83
2021/12/10 01:03:01;;;;;;;;;0.00;0.00;;;;;5.43;78.32;98818.00;5087955;27;45569;-83
2021/12/10 01:05:27;;;;;;;;;0.00;0.00;;;;;5.66;78.06;98848.06;5098622;27;47303;-82
2021/12/10 01:07:53;;;;;;;;;0.00;0.00;;;;;5.52;78.55;98814.53;5089456;27;45349;-83
2021/12/10 01:10:37;;;;;;;;;0.00;0.00;;;;;5.63;78.38;98823.13;5094331;27;45492;-82
2021/12/10 01:13:06;;;;;;;;;0.00;0.00;;;;;5.63;78.45;98820.53;5097699;27;45270;-82
2021/12/10 01:24:14;;;;;;;;;0.00;0.00;;;;;5.64;78.63;98790.44;5076654;27;45460;-82
2021/12/10 01:29:11;;;;;;;;;0.00;0.00;;;;;5.49;79.07;98757.75;5099730;27;45451;-82
2021/12/10 01:31:37;;;;;;;;;0.00;0.00;;;;;5.44;78.51;98752.59;5067444;27;45349;-83
2021/12/10 01:34:05;;;;;;;;;0.00;0.00;;;;;5.46;79.30;98740.56;5088860;27;45549;-83
2021/12/10 01:36:31;;;;;;;;;0.33;0.00;;;;;5.54;79.11;98754.31;5090812;27;47274;-82
2021/12/10 01:38:56;;;;;;;;;0.00;0.00;;;;;5.31;78.46;98713.09;5096094;27;45479;-83
2021/12/10 01:41:27;;;;;;;;;0.00;0.00;;;;;5.64;78.54;98746.53;5086076;27;45397;-83
2021/12/10 01:43:59;;;;;;;;;0.00;0.00;;;;;5.65;78.43;98738.78;5097783;27;45255;-83
2021/12/10 01:46:27;;;;;;;;;0.00;0.00;;;;;5.52;78.15;98708.72;5092765;27;45432;-82
2021/12/10 01:48:56;;;;;;;;;0.00;0.00;;;;;5.68;78.05;98728.47;5089444;27;45403;-82
2021/12/10 01:51:27;;;;;;;;;0.00;0.00;;;;;5.69;78.10;98727.59;5080793;27;45470;-83
2021/12/10 01:53:56;;;;;;;;;0.00;0.00;;;;;5.63;78.34;98734.50;5086523;27;45470;-83
2021/12/10 01:56:28;;;;;;;;;0.00;0.00;;;;;5.70;77.84;98774.94;5085512;27;46465;-83
2021/12/10 01:58:55;;;;;;;;;0.00;0.00;;;;;5.69;78.13;98750.81;5094797;27;45362;-82
2021/12/10 02:01:28;;;;;;;;;0.00;0.00;;;;;5.43;77.79;98713.03;5099798;27;45605;-83
2021/12/10 02:03:54;;;;;;;;;1.00;1.00;;;;;5.71;78.11;98761.16;5083808;27;45334;-83
2021/12/10 02:06:20;;;;;;;;;0.00;0.00;;;;;5.64;78.21;98749.97;5092472;27;46119;-83
2021/12/10 02:08:46;;;;;;;;;0.00;0.00;;;;;5.75;78.14;98764.56;5072669;28;45459;-82
2021/12/10 02:11:13;;;;;;;;;0.00;0.00;;;;;5.61;78.00;98721.59;5099427;27;45741;-83
2021/12/10 02:13:38;;;;;;;;;0.00;0.00;;;;;5.55;77.96;98695.81;5086213;27;45491;-82
2021/12/10 02:16:05;;;;;;;;;0.00;0.00;;;;;5.68;78.17;98697.47;5091262;27;46327;-83
2021/12/10 02:18:31;;;;;;;;;0.00;0.00;;;;;5.54;77.76;98668.25;5082023;27;45267;-82
2021/12/10 02:21:02;;;;;;;;;0.00;0.00;;;;;5.87;77.74;98725.78;5097386;27;45269;-83
2021/12/10 02:23:31;;;;;;;;;0.00;0.00;;;;;5.82;77.39;98707.72;5083542;27;45523;-83
2021/12/10 02:25:57;;;;;;;;;0.00;0.00;;;;;5.93;78.02;98699.06;5100106;27;45627;-83
2021/12/10 02:28:22;;;;;;;;;0.00;0.00;;;;;5.68;77.64;98660.47;5098629;27;45439;-83
2021/12/10 02:30:48;;;;;;;;;0.00;0.00;;;;;5.86;78.02;98684.47;5096716;27;45271;-83
2021/12/10 02:33:15;;;;;;;;;0.00;0.00;;;;;5.98;78.05;98702.50;5091421;27;45522;-83
2021/12/10 02:35:41;;;;;;;;;0.00;0.00;;;;;5.57;77.79;98626.94;5105616;27;45560;-83
2021/12/10 02:38:08;;;;;;;;;0.00;0.00;;;;;5.89;77.56;98664.66;5093725;27;45258;-83
2021/12/10 02:40:36;;;;;;;;;0.00;0.00;;;;;5.85;77.67;98638.88;5093285;27;45536;-83
2021/12/10 02:43:08;;;;;;;;;0.00;0.00;;;;;5.98;77.76;98658.59;5099186;27;45538;-83
2021/12/10 02:45:34;;;;;;;;;0.00;0.00;;;;;6.12;77.94;98665.44;5085223;27;45526;-83
2021/12/10 02:48:00;;;;;;;;;0.00;0.00;;;;;6.20;77.50;98661.06;5095586;27;45511;-84
2021/12/10 02:50:29;;;;;;;;;0.00;0.00;;;;;5.93;77.08;98612.13;5093032;27;45446;-83
2021/12/10 02:52:54;;;;;;;;;0.00;0.00;;;;;6.15;77.59;98643.00;5087728;27;45307;-83
2021/12/10 02:55:22;;;;;;;;;0.00;0.00;;;;;6.18;77.79;98639.53;5092744;27;45279;-84
2021/12/10 02:57:50;;;;;;;;;0.00;0.00;;;;;6.02;77.58;98613.78;5089198;27;45364;-84
2021/12/10 03:00:22;;;;;;;;;0.00;0.00;;;;;6.06;77.54;98614.63;5095217;27;45358;-84
2021/12/10 03:02:47;;;;;;;;;0.00;0.00;;;;;6.20;77.65;98622.31;5099623;27;45403;-83
2021/12/10 03:05:13;;;;;;;;;0.00;0.00;;;;;6.03;77.78;98591.41;5087912;27;45378;-83
2021/12/10 03:07:40;;;;;;;;;0.00;0.00;;;;;6.18;77.96;98604.22;5087341;27;45433;-83
2021/12/10 03:10:13;;;;;;;;;0.00;0.00;;;;;6.39;77.49;98637.66;5099566;27;45547;-83
2021/12/10 03:12:39;;;;;;;;;1.00;0.00;;;;;6.50;77.60;98648.78;5096137;27;45376;-83
2021/12/10 03:15:07;;;;;;;;;0.00;0.00;;;;;6.52;77.62;98646.19;5087682;27;47253;-84
2021/12/10 03:17:33;;;;;;;;;0.00;0.00;;;;;6.54;77.70;98650.47;5101154;27;45414;-83
2021/12/10 03:20:03;;;;;;;;;0.00;0.00;;;;;6.54;77.86;98659.94;5078225;27;45277;-83
2021/12/10 03:22:28;;;;;;;;;0.00;0.00;;;;;6.56;78.00;98659.06;5093782;27;45622;-83
2021/12/10 03:24:53;;;;;;;;;0.00;0.00;;;;;6.56;77.73;98647.88;5097904;27;47028;-83
2021/12/10 03:27:22;;;;;;;;;0.00;0.00;;;;;6.52;77.92;98623.75;5089302;27;45388;-83
2021/12/10 03:29:48;;;;;;;;;0.00;0.00;;;;;6.69;77.76;98641.72;5102944;27;45285;-84
2021/12/10 03:32:22;;;;;;;;;0.00;0.00;;;;;6.62;77.72;98629.72;5088125;27;45547;-83
2021/12/10 03:34:48;;;;;;;;;0.00;0.00;;;;;6.61;77.91;98635.75;5096955;27;46987;-83
2021/12/10 03:37:17;;;;;;;;;0.00;0.00;;;;;6.72;77.74;98652.03;5088474;27;45385;-83
2021/12/10 03:39:43;;;;;;;;;0.00;0.00;;;;;6.57;77.91;98628.91;5100408;27;45382;-84
2021/12/10 03:42:09;;;;;;;;;0.00;0.00;;;;;6.39;77.92;98597.16;5083937;28;45437;-83
2021/12/10 03:44:35;;;;;;;;;0.00;0.00;;;;;6.80;77.80;98656.28;5096571;27;45500;-83
2021/12/10 03:47:03;;;;;;;;;0.00;0.00;;;;;6.78;77.90;98650.25;5089181;27;45445;-83
2021/12/10 03:49:28;;;;;;;;;0.00;0.00;;;;;6.54;77.93;98619.44;5103229;27;45376;-83
2021/12/10 03:51:54;;;;;;;;;0.00;0.00;;;;;6.74;77.89;98651.16;5089081;27;45462;-83
2021/12/10 03:54:19;;;;;;;;;0.00;0.00;;;;;6.54;78.35;98623.75;5082416;28;48013;-84
2021/12/10 03:56:47;;;;;;;;;0.00;0.00;;;;;6.50;78.47;98615.19;5083994;28;45350;-83
2021/12/10 03:59:16;;;;;;;;;0.00;0.00;;;;;6.67;78.91;98642.59;5101805;27;45400;-84
2021/12/10 04:01:45;;;;;;;;;0.00;0.00;;;;;6.73;78.92;98673.56;5087893;27;45416;-83
2021/12/10 04:04:17;;;;;;;;;0.00;0.00;;;;;6.32;79.19;98601.56;5095604;27;47784;-83
2021/12/10 04:06:43;;;;;;;;;0.00;0.00;;;;;5.97;79.05;98548.38;5095266;27;45427;-83
2021/12/10 04:09:09;;;;;;;;;0.00;0.00;;;;;6.72;79.57;98670.16;5087274;27;45442;-83
2021/12/10 04:11:36;;;;;;;;;0.00;0.00;;;;;6.59;79.40;98640.94;5089651;27;45656;-83
2021/12/10 04:14:02;;;;;;;;;0.00;0.00;;;;;6.67;80.09;98634.84;5096092;27;48048;-83
2021/12/10 04:16:29;;;;;;;;;0.00;0.00;;;;;6.81;79.74;98651.09;5096451;27;45447;-83
2021/12/10 04:18:57;;;;;;;;;0.00;0.00;;;;;6.76;79.61;98637.34;5104147;27;45425;-83
2021/12/10 04:21:23;;;;;;;;;0.00;0.00;;;;;6.81;80.14;98633.00;5087744;27;45406;-83
2021/12/10 04:23:49;;;;;;;;;0.00;0.00;;;;;6.94;79.70;98657.00;5097853;27;46672;-83
2021/12/10 04:26:17;;;;;;;;;0.00;0.00;;;;;6.76;79.91;98613.19;5092879;27;45291;-83
2021/12/10 04:28:43;;;;;;;;;1.00;0.00;;;;;6.87;79.20;98632.06;5091767;27;45507;-83
2021/12/10 04:31:09;;;;;;;;;0.00;0.00;;;;;6.97;79.95;98646.63;5092498;27;45536;-83
2021/12/10 04:33:35;;;;;;;;;0.00;0.00;;;;;7.11;80.03;98655.97;5086809;27;46549;-83
2021/12/10 04:36:01;;;;;;;;;0.00;0.00;;;;;7.18;79.44;98669.69;5096560;27;45412;-84
2021/12/10 04:38:29;;;;;;;;;0.00;0.00;;;;;7.25;80.13;98663.56;5094837;27;45285;-83
2021/12/10 04:40:59;;;;;;;;;0.00;0.00;;;;;7.26;79.65;98674.78;5089173;27;45369;-83
2021/12/10 04:43:25;;;;;;;;;1.00;0.00;;;;;6.85;80.09;98605.34;5088001;27;46420;-83
2021/12/10 04:45:53;;;;;;;;;0.00;0.00;;;;;6.97;79.51;98628.53;5098972;27;45322;-83
2021/12/10 04:48:18;;;;;;;;;0.00;0.00;;;;;7.29;79.82;98674.75;5091714;27;45359;-83
2021/12/10 04:50:44;;;;;;;;;0.00;0.00;;;;;7.31;79.82;98681.63;5090830;27;45374;-83
2021/12/10 04:53:11;;;;;;;;;0.00;0.00;;;;;7.21;79.72;98648.97;5086221;27;46420;-83
2021/12/10 04:55:38;;;;;;;;;0.00;0.00;;;;;7.11;79.20;98627.53;5076811;27;45443;-82
2021/12/10 04:58:04;;;;;;;;;0.00;0.00;;;;;7.25;79.46;98629.94;5099070;27;45524;-82
2021/12/10 05:00:35;;;;;;;;;0.00;0.00;;;;;7.34;79.01;98641.91;5094850;27;45431;-82
2021/12/10 05:03:00;;;;;;;;;0.00;0.00;;;;;7.26;79.23;98623.88;5088378;27;46547;-81
2021/12/10 05:05:27;;;;;;;;;0.00;0.00;;;;;7.60;78.87;98674.41;5092459;27;45380;-82
2021/12/10 05:07:54;;;;;;;;;0.00;0.00;;;;;7.47;78.71;98651.25;5098251;27;45338;-83
2021/12/10 05:10:20;;;;;;;;;0.00;0.00;;;;;7.59;78.97;98660.59;5093395;27;45392;-83
2021/12/10 05:12:46;;;;;;;;;0.00;0.00;;;;;7.57;78.16;98645.97;5090949;27;45387;-83
2021/12/10 05:15:20;;;;;;;;;0.00;0.00;;;;;7.55;77.99;98652.88;5099363;27;45384;-82
2021/12/10 05:17:48;;;;;;;;;0.00;0.00;;;;;7.75;77.71;98685.44;5088283;27;45687;-83
2021/12/10 05:20:18;;;;;;;;;1.50;0.00;;;;;7.63;77.27;98678.69;5095070;27;45309;-83
2021/12/10 05:22:46;;;;;;;;;0.00;0.00;;;;;7.78;77.80;98699.19;5095133;27;46417;-83
2021/12/10 05:25:13;;;;;;;;;0.00;0.00;;;;;7.64;77.52;98683.84;5086756;27;45289;-83
2021/12/10 05:27:40;;;;;;;;;0.00;0.00;;;;;7.57;77.65;98672.69;5099837;27;45295;-83
2021/12/10 05:30:07;;;;;;;;;0.25;0.00;;;;;7.65;77.41;98682.09;5090823;27;45407;-82
2021/12/10 05:32:33;;;;;;;;;0.00;0.00;;;;;7.66;77.38;98687.25;5091505;27;45591;-83
2021/12/10 05:35:00;;;;;;;;;1.00;1.00;;;;;7.85;76.99;98720.72;5097602;27;45419;-82
2021/12/10 05:37:25;;;;;;;;;0.00;0.00;;;;;7.72;77.30;98712.25;5084336;27;45330;-83
2021/12/10 05:39:51;;;;;;;;;0.00;0.00;;;;;7.72;76.63;98725.19;5097739;27;45337;-82
2021/12/10 05:42:16;;;;;;;;;0.00;0.00;;;;;7.51;76.68;98693.50;5091424;27;45464;-82
2021/12/10 05:44:42;;;;;;;;;0.00;0.00;;;;;7.08;76.14;98656.00;5088554;27;45631;-82
2021/12/10 05:47:08;;;;;;;;;0.00;0.00;;;;;7.63;75.94;98744.28;5099280;27;45370;-81
2021/12/10 05:49:33;;;;;;;;;0.00;0.00;;;;;7.64;76.14;98751.19;5085592;27;45279;-82
2021/12/10 05:51:59;;;;;;;;;0.00;0.00;;;;;7.60;76.53;98742.56;5099509;27;46604;-82
2021/12/10 05:54:24;;;;;;;;;0.00;0.00;;;;;7.53;76.06;98735.75;5082203;28;45385;-82
2021/12/10 05:56:50;;;;;;;;;0.00;0.00;;;;;7.62;76.19;98746.91;5081413;27;45451;-83
2021/12/10 05:59:16;;;;;;;;;0.00;0.00;;;;;7.69;76.24;98758.91;5088941;27;45357;-82
2021/12/10 06:01:41;;;;;;;;;1.00;0.00;;;;;7.29;76.14;98706.66;5090805;27;47118;-79
2021/12/10 06:04:08;;;;;;;;;0.00;0.00;;;;;7.52;76.57;98746.13;5094137;27;45338;-80
2021/12/10 06:06:34;;;;;;;;;0.00;0.00;;;;;7.58;76.42;98761.59;5093252;27;45709;-79
2021/12/10 06:09:02;;;;;;;;;1.00;0.00;;;;;7.66;76.65;98774.47;5086502;27;45531;-80
2021/12/10 06:11:28;;;;;;;;;0.00;0.00;;;;;7.41;76.89;98743.66;5098133;27;46217;-80
2021/12/10 06:13:54;;;;;;;;;0.75;0.75;;;;;7.50;77.13;98769.44;5087637;27;45305;-79
2021/12/10 06:16:19;;;;;;;;;0.00;0.00;;;;;7.69;76.83;98793.41;5092392;27;45239;-80
2021/12/10 06:18:45;;;;;;;;;0.00;0.00;;;;;7.50;76.83;98772.03;5093767;27;45389;-80
2021/12/10 06:21:11;;;;;;;;;0.00;0.00;;;;;7.47;76.78;98780.69;5084692;27;45825;-80
2021/12/10 06:23:37;;;;;;;;;0.00;0.00;;;;;7.64;76.83;98804.69;5066062;27;45658;-80
2021/12/10 06:26:04;;;;;;;;;0.00;0.00;;;;;7.50;77.01;98790.16;5093641;27;45715;-80
2021/12/10 06:28:30;;;;;;;;;0.00;0.00;;;;;7.53;77.18;98800.47;5089473;27;45414;-80
2021/12/10 06:30:56;;;;;;;;;0.00;0.00;;;;;7.53;76.89;98805.66;5075108;27;46632;-81
2021/12/10 06:33:48;;;;;;;;;1.00;1.00;;;;;7.22;76.45;98755.06;5085691;27;45491;-80
2021/12/10 06:36:15;;;;;;;;;0.00;0.00;;;;;7.60;76.69;98811.66;5081906;27;45362;-81
2021/12/10 06:38:41;;;;;;;;;0.00;0.00;;;;;7.58;75.75;98819.44;5083605;27;45727;-80
2021/12/10 06:41:08;;;;;;;;;0.00;0.00;;;;;7.63;75.81;98831.47;5097853;27;45295;-80
2021/12/10 06:43:34;;;;;;;;;0.00;0.00;;;;;7.34;76.15;98784.28;5081848;27;45364;-80
2021/12/10 06:46:01;;;;;;;;;0.00;0.00;;;;;7.62;75.93;98840.97;5088952;27;45331;-80
2021/12/10 06:48:27;;;;;;;;;0.00;0.00;;;;;7.62;76.23;98840.97;5090646;27;45542;-80
2021/12/10 06:50:58;;;;;;;;;0.00;0.00;;;;;7.69;76.48;98852.97;5096422;27;45382;-80
2021/12/10 06:53:28;;;;;;;;;0.00;0.00;;;;;7.47;76.44;98832.47;5084537;27;45457;-79
2021/12/10 06:55:53;;;;;;;;;0.00;0.00;;;;;7.51;76.83;98846.28;5090082;27;45312;-79
2021/12/10 06:58:20;;;;;;;;;0.00;0.00;;;;;7.39;76.82;98846.38;5090420;27;45464;-80
2021/12/10 07:01:13;;;;;;;;;0.00;0.00;;;;;7.35;77.05;98874.00;5066603;28;47223;-82
2021/12/10 07:03:40;;;;;;;;;0.00;0.00;;;;;7.37;77.77;98880.03;5089285;27;45493;-81
2021/12/10 07:06:07;;;;;;;;;0.00;0.00;;;;;7.25;77.15;98883.56;5068718;27;45433;-80
2021/12/10 07:08:35;;;;;;;;;0.00;0.00;;;;;7.32;77.33;98921.47;5091713;27;45434;-81
2021/12/10 07:11:02;;;;;;;;;0.00;0.00;;;;;7.21;77.47;98907.75;5084202;27;47180;-80
2021/12/10 07:13:28;;;;;;;;;0.00;0.00;;;;;7.26;77.23;98931.88;5096687;27;45429;-81
2021/12/10 07:15:54;;;;;;;;;0.00;0.00;;;;;6.86;77.22;98885.56;5075736;27;45527;-80
2021/12/10 07:18:22;;;;;;;;;0.00;0.00;;;;;7.20;77.12;98943.13;5089648;27;45408;-81
2021/12/10 07:20:48;;;;;;;;;0.00;0.00;;;;;6.99;77.29;98927.75;5081142;27;46162;-80
2021/12/10 07:23:14;;;;;;;;;0.00;0.00;;;;;6.86;77.26;98932.13;5080081;27;45418;-80
2021/12/10 07:25:40;;;;;;;;;0.00;0.00;;;;;6.82;77.13;98934.72;5096763;27;45386;-80
2021/12/10 07:28:06;;;;;;;;;0.00;0.00;;;;;6.96;77.46;98972.59;5078849;27;45610;-81
2021/12/10 07:30:32;;;;;;;;;0.00;0.00;;;;;6.98;77.27;98981.19;5068205;27;47307;-80
2021/12/10 07:32:58;;;;;;;;;0.00;0.00;;;;;6.96;76.88;98970.84;5077400;27;45837;-80
2021/12/10 07:35:24;;;;;;;;;0.00;0.00;;;;;6.71;76.20;98950.28;5085122;27;45455;-81
2021/12/10 07:37:50;;;;;;;;;0.00;0.00;;;;;6.72;76.28;98962.38;5065713;27;45581;-81
2021/12/10 07:40:20;;;;;;;;;0.00;0.00;;;;;6.87;76.34;98988.16;5083774;27;45564;-82
2021/12/10 07:42:46;;;;;;;;;0.00;0.00;;;;;6.05;75.16;98858.34;5071644;27;45419;-83
2021/12/10 07:45:13;;;;;;;;;0.00;0.00;;;;;6.86;75.26;99017.50;5075961;27;46893;-82
2021/12/10 07:47:38;;;;;;;;;0.00;0.00;;;;;6.81;75.08;99033.91;5085129;27;45544;-83
2021/12/10 07:50:08;;;;;;;;;0.00;0.00;;;;;6.79;75.16;99033.03;5089143;27;45374;-83
2021/12/10 07:52:34;;;;;;;;;0.00;0.00;;;;;6.64;74.68;98994.31;5091341;27;45850;-82
2021/12/10 07:55:04;;;;;;;;;0.00;0.00;;;;;6.75;73.81;99031.31;5082892;27;45395;-82
2021/12/10 07:57:29;;;;;;;;;0.00;0.00;;;;;6.45;73.42;98984.00;5084041;27;45405;-81
2021/12/10 07:59:57;;;;;;;;;0.00;0.00;;;;;6.76;74.62;99038.19;5091182;27;46297;-81
2021/12/10 08:02:23;;;;;;;;;0.00;0.00;;;;;6.70;73.73;99030.47;5075835;27;45499;-82
2021/12/10 08:04:48;;;;;;;;;0.00;0.00;;;;;6.70;73.67;99030.47;5089992;27;45342;-81
2021/12/10 08:07:14;;;;;;;;;0.00;0.00;;;;;6.77;73.48;99039.91;5089426;27;45355;-82
2021/12/10 08:09:41;;;;;;;;;0.00;0.00;;;;;6.59;73.83;99013.25;5084080;27;45481;-82
2021/12/10 08:12:07;;;;;;;;;0.00;0.00;;;;;6.62;73.41;99011.53;5080430;27;45405;-81
2021/12/10 08:14:33;;;;;;;;;0.00;0.00;;;;;6.82;72.86;99058.88;5092856;27;45467;-82
2021/12/10 08:16:59;;;;;;;;;4.00;0.00;;;;;6.89;72.94;99077.81;5068687;27;45534;-81
2021/12/10 08:19:24;;;;;;;;;0.00;0.00;;;;;6.86;72.94;99079.56;5099015;27;45566;-81
2021/12/10 08:21:49;;;;;;;;;0.00;0.00;;;;;6.87;73.08;99096.81;5087129;27;45555;-82
2021/12/10 08:24:15;;;;;;;;;2.00;1.00;;;;;6.93;72.80;99104.56;5095151;27;45377;-82
2021/12/10 08:26:41;;;;;;;;;0.00;0.00;;;;;6.87;72.28;99089.03;5084403;28;45330;-82
2021/12/10 08:29:08;;;;;;;;;0.00;0.00;;;;;6.92;72.23;99115.78;5078927;27;45272;-82
2021/12/10 08:31:34;;;;;;;;;0.00;0.00;;;;;6.94;71.01;99121.78;5086498;27;45364;-80
2021/12/10 08:34:00;;;;;;;;;0.00;0.00;;;;;6.91;71.07;99120.09;5068818;27;45555;-81
2021/12/10 08:36:27;;;;;;;;;0.00;0.00;;;;;7.03;70.91;99120.91;5092779;27;45573;-81
2021/12/10 08:38:52;;;;;;;;;0.00;0.00;;;;;6.95;70.08;99119.19;5073745;27;47043;-81
2021/12/10 08:41:22;;;;;;;;;0.00;0.00;;;;;7.05;69.62;99151.09;5090159;27;45664;-81
2021/12/10 08:43:48;;;;;;;;;0.00;0.00;;;;;7.03;70.22;99151.97;5073587;27;45503;-80
2021/12/10 08:46:15;;;;;;;;;0.00;0.00;;;;;7.00;70.06;99157.13;5093540;27;45326;-80
2021/12/10 08:48:42;;;;;;;;;0.00;0.00;;;;;7.02;70.09;99156.28;5088074;27;46113;-81
2021/12/10 08:51:15;;;;;;;;;0.00;0.00;;;;;6.95;70.06;99149.38;5067496;27;45317;-80
2021/12/10 08:53:41;;;;;;;;;0.00;0.00;;;;;7.05;70.07;99169.19;5084561;27;45388;-81
2021/12/10 08:56:08;;;;;;;;;0.00;0.00;;;;;6.99;70.12;99161.47;5088780;27;45449;-82
2021/12/10 08:58:33;;;;;;;;;0.00;0.00;;;;;7.03;70.22;99164.91;5086026;27;45384;-83
2021/12/10 09:01:12;;;;;;;;;0.00;0.00;;;;;7.03;70.36;99181.28;5089254;27;45427;-83
2021/12/10 09:03:38;;;;;;;;;0.00;0.00;;;;;7.05;70.17;99184.72;5077251;27;45306;-82
2021/12/10 09:06:05;;;;;;;;;0.00;0.00;;;;;6.94;70.38;99181.28;5096867;27;45457;-81
2021/12/10 09:08:31;;;;;;;;;0.00;0.00;;;;;7.00;70.22;99203.72;5082600;27;46370;-82
2021/12/10 09:10:56;;;;;;;;;0.00;0.00;;;;;6.83;70.17;99171.81;5071595;27;45447;-81
2021/12/10 09:13:24;;;;;;;;;0.00;0.00;;;;;7.05;70.41;99202.84;5070800;27;45588;-80
2021/12/10 09:15:58;;;;;;;;;0.00;0.00;;;;;7.07;70.38;99208.00;5077296;27;45401;-80
2021/12/10 09:18:25;;;;;;;;;0.00;0.00;;;;;7.01;70.49;99208.03;5079957;27;45394;-81
2021/12/10 09:20:54;;;;;;;;;0.00;0.00;;;;;7.00;70.41;99216.66;5071491;27;45468;-80
2021/12/10 09:23:23;;;;;;;;;0.00;0.00;;;;;7.12;70.97;99232.16;5068641;27;45286;-80
2021/12/10 09:25:53;;;;;;;;;0.00;0.00;;;;;6.99;70.30;99213.22;5065633;27;45458;-80
2021/12/10 09:28:18;;;;;;;;;0.00;0.00;;;;;7.07;70.21;99237.34;5071710;27;45425;-80
2021/12/10 09:30:48;;;;;;;;;0.00;0.00;;;;;6.95;71.12;99216.66;5068000;27;45466;-79
2021/12/10 09:33:14;;;;;;;;;0.00;0.00;;;;;7.04;70.35;99252.03;5069370;27;45488;-80
2021/12/10 09:35:40;;;;;;;;;0.00;0.00;;;;;6.91;70.57;99233.03;5078287;27;45709;-80
2021/12/10 09:38:06;;;;;;;;;1.00;1.00;;;;;6.96;70.67;99241.69;5083181;27;46844;-80
2021/12/10 09:40:38;;;;;;;;;0.00;0.00;;;;;7.01;71.07;99257.19;5085830;27;45361;-80
2021/12/10 09:43:06;;;;;;;;;1.00;0.00;;;;;7.11;70.41;99264.09;5071914;27;45476;-82
2021/12/10 09:45:34;;;;;;;;;0.00;0.00;;;;;6.74;71.07;99220.97;5096340;27;45471;-80
2021/12/10 09:48:01;;;;;;;;;0.00;0.00;;;;;7.13;70.78;99269.28;5073027;27;46421;-82
2021/12/10 09:50:30;;;;;;;;;0.33;0.00;;;;;7.28;70.74;99292.53;5070895;27;45422;-81
2021/12/10 09:52:58;;;;;;;;;0.00;0.00;;;;;7.35;69.93;99289.06;5079345;27;45359;-80
2021/12/10 09:55:27;;;;;;;;;0.00;0.00;;;;;7.35;70.44;99286.47;5075193;27;45440;-82
2021/12/10 09:57:55;;;;;;;;;0.00;0.00;;;;;7.39;69.83;99304.59;5078007;27;45458;-81
2021/12/10 10:00:24;;;;;;;;;0.00;0.00;;;;;7.42;69.72;99300.31;5077212;28;45397;-88
2021/12/10 10:02:50;;;;;;;;;0.00;0.00;;;;;7.44;69.48;99302.88;5070673;27;46902;-81
2021/12/10 10:05:15;;;;;;;;;0.00;0.00;;;;;7.35;69.62;99283.91;5095582;27;45293;-81
2021/12/10 10:07:41;;;;;;;;;0.00;0.00;;;;;7.47;68.55;99311.50;5083379;27;47438;-81
2021/12/10 10:10:15;;;;;;;;;0.00;0.00;;;;;7.40;68.73;99325.31;5092538;27;45550;-79
2021/12/10 10:12:46;;;;;;;;;0.00;0.00;;;;;7.34;68.76;99313.25;5074305;27;45341;-79
2021/12/10 10:15:20;;;;;;;;;0.00;0.00;;;;;7.05;67.57;99280.47;5073201;27;45433;-82
2021/12/10 10:17:47;;;;;;;;;0.00;0.00;;;;;7.23;67.95;99340.88;5075195;27;47041;-82
2021/12/10 10:20:15;;;;;;;;;0.00;0.00;;;;;7.03;66.76;99313.25;5091565;27;45466;-81
2021/12/10 10:22:41;;;;;;;;;0.75;0.00;;;;;6.93;66.87;99316.69;5070808;28;45399;-83
2021/12/10 10:25:08;;;;;;;;;0.00;0.00;;;;;6.89;66.34;99309.81;5069501;27;45890;-83
2021/12/10 10:27:38;;;;;;;;;0.00;0.00;;;;;7.22;66.81;99354.66;5084322;27;45523;-84
2021/12/10 10:30:04;;;;;;;;;0.00;0.00;;;;;7.32;66.80;99353.78;5088942;27;45404;-81
2021/12/10 10:32:32;;;;;;;;;0.00;0.00;;;;;7.19;66.98;99315.84;5088845;27;45364;-79
2021/12/10 10:35:09;;;;;;;;;0.50;0.00;;;;;7.09;67.07;99305.50;5074640;27;45553;-80
2021/12/10 10:37:35;;;;;;;;;0.00;0.00;;;;;7.25;66.59;99327.91;5097999;27;47067;-82
2021/12/10 10:40:06;;;;;;;;;0.00;0.00;;;;;7.03;66.51;99318.44;5075748;27;45407;-84
2021/12/10 10:42:32;;;;;;;;;0.00;0.00;;;;;7.35;66.28;99366.75;5073285;27;45503;-80
2021/12/10 10:45:04;;;;;;;;;0.00;0.00;;;;;7.40;66.16;99369.34;5092826;27;45470;-79
2021/12/10 10:47:30;;;;;;;;;0.00;0.00;;;;;7.46;66.15;99373.66;5073530;27;46303;-83
2021/12/10 10:50:12;;;;;;;;;0.00;0.00;;;;;7.21;65.89;99308.94;5075042;27;45404;-80
2021/12/10 10:52:43;;;;;;;;;0.00;0.00;;;;;7.42;65.81;99357.25;5069647;27;45547;-82
2021/12/10 10:55:11;;;;;;;;;0.00;0.00;;;;;7.52;65.46;99384.00;5069706;27;45527;-80
2021/12/10 10:57:47;;;;;;;;;0.25;0.25;;;;;7.56;64.98;99397.78;5065166;27;47366;-79
2021/12/10 11:00:29;;;;;;;;;0.00;0.00;;;;;7.35;64.48;99356.38;5081403;27;45340;-79
2021/12/10 11:03:01;;;;;;;;;0.00;0.00;;;;;7.67;63.25;99400.41;5072316;27;45352;-80
2021/12/10 11:05:27;;;;;;;;;0.00;0.00;;;;;7.57;63.45;99377.06;5094776;27;45536;-80
2021/12/10 11:07:57;;;;;;;;;0.00;0.00;;;;;7.56;63.61;99367.59;5073766;27;46174;-79
2021/12/10 11:10:44;;;;;;;;;0.00;0.00;;;;;7.69;63.91;99411.63;5082421;27;45370;-79
2021/12/10 11:13:21;;;;;;;;;0.00;0.00;;;;;7.68;62.82;99408.16;5078869;27;45388;-80
2021/12/10 11:16:11;;;;;;;;;0.00;0.00;;;;;7.64;63.48;99398.69;5069122;27;45587;-80
2021/12/10 11:19:05;;;;;;;;;0.00;0.00;;;;;7.76;63.51;99412.47;5078850;27;45517;-81
2021/12/10 11:21:39;;;;;;;;;1.00;0.00;;;;;8.01;62.95;99413.31;5081538;27;45428;-80
2021/12/10 11:24:45;;;;;;;;;0.00;0.00;;;;;8.01;61.40;99425.38;5096643;27;45548;-81
2021/12/10 11:27:37;;;;;;;;;0.00;0.00;;;;;7.97;61.67;99427.13;5068719;27;45691;-81
2021/12/10 11:30:11;;;;;;;;;0.00;0.00;;;;;7.96;60.98;99435.75;5093229;27;47132;-80
2021/12/10 11:33:11;;;;;;;;;0.00;0.00;;;;;7.75;60.87;99421.97;5078233;27;45536;-81
2021/12/10 11:35:41;;;;;;;;;0.00;0.00;;;;;7.86;61.93;99447.88;5068839;27;45590;-82
2021/12/10 11:38:15;;;;;;;;;1.75;0.00;;;;;7.66;61.75;99419.41;5096640;27;44980;-83
2021/12/10 11:40:58;;;;;;;;;0.00;0.00;;;;;7.70;61.52;99423.72;5075986;27;47196;-83
2021/12/10 11:46:32;;;;;;;;;0.00;0.00;;;;;7.83;61.45;99456.50;5082205;27;45440;-83
2021/12/10 11:49:10;;;;;;;;;0.00;0.00;;;;;7.59;60.02;99424.56;5079899;28;46171;-85
2021/12/10 11:51:53;;;;;;;;;0.00;0.00;;;;;7.82;60.26;99464.28;5070416;27;46240;-82
2021/12/10 11:54:28;;;;;;;;;0.00;0.00;;;;;7.85;61.08;99470.31;5075664;27;45501;-84
2021/12/10 11:57:02;;;;;;;;;0.00;0.00;;;;;7.90;60.29;99485.88;5089477;27;46010;-82
2021/12/10 11:59:34;;;;;;;;;0.00;0.00;;;;;7.90;60.21;99477.25;5074641;27;45533;-83
2021/12/10 12:02:05;;;;;;;;;0.00;0.00;;;;;7.89;60.95;99481.56;5076765;27;47809;-89